Time;durP1;ratioP1;P1;durP2;ratioP2;P2;SDS_P1;SDS_P2;PMS_P1;PMS_P2;Temp;Humidity;BMP_temperature;BMP_pressure;BME280_temperature;BME280_humidity;BME280_pressure;Samples;Min_cycle;Max_cycle;Signal;HPM_P1;HPM_P2
2023/02/23 00:01:13;;;;;;;128.23;55.03;;;8.70;99.90;;;;;;6274638;22;20310;-88
2023/02/23 00:03:39;;;;;;;117.65;52.60;;;8.70;99.90;;;;;;6275519;22;20069;-87
2023/02/23 00:06:06;;;;;;;116.95;52.05;;;8.70;99.90;;;;;;6247640;22;20019;-87
2023/02/23 00:08:34;;;;;;;122.68;54.03;;;8.70;99.90;;;;;;6274803;22;19996;-88
2023/02/23 00:11:00;;;;;;;117.72;52.85;;;8.70;99.90;;;;;;6248030;22;20015;-87
2023/02/23 00:13:26;;;;;;;119.80;53.15;;;8.70;99.90;;;;;;6248524;22;20004;-87
2023/02/23 00:15:51;;;;;;;119.15;54.55;;;8.60;99.90;;;;;;6248474;22;20007;-87
2023/02/23 00:18:17;;;;;;;118.65;52.65;;;8.60;99.90;;;;;;6247884;22;20050;-87
2023/02/23 00:20:46;;;;;;;121.35;53.08;;;8.60;99.90;;;;;;6248102;22;20015;-87
2023/02/23 00:23:13;;;;;;;116.63;52.63;;;8.60;99.90;;;;;;6247074;22;19996;-87
2023/02/23 00:25:44;;;;;;;116.53;51.55;;;8.60;99.90;;;;;;6248242;22;20008;-87
2023/02/23 00:28:09;;;;;;;112.25;53.35;;;8.60;99.90;;;;;;6247906;22;20448;-87
2023/02/23 00:30:35;;;;;;;108.72;48.25;;;8.50;99.90;;;;;;6250003;22;20008;-87
2023/02/23 00:33:00;;;;;;;119.40;51.95;;;8.50;99.90;;;;;;6249028;22;19996;-87
2023/02/23 00:35:26;;;;;;;112.00;50.42;;;8.50;99.90;;;;;;6250102;22;20022;-87
2023/02/23 00:37:51;;;;;;;118.57;51.55;;;8.50;99.90;;;;;;6249798;22;20011;-87
2023/02/23 00:40:20;;;;;;;117.03;52.00;;;8.40;99.90;;;;;;6249887;22;20380;-87
2023/02/23 00:42:46;;;;;;;119.00;52.45;;;8.50;99.90;;;;;;6250184;22;20007;-87
2023/02/23 00:45:13;;;;;;;119.80;53.13;;;8.40;99.90;;;;;;6249805;22;20019;-87
2023/02/23 00:47:41;;;;;;;122.13;52.83;;;8.40;99.90;;;;;;6249191;22;20018;-87
2023/02/23 00:50:11;;;;;;;115.13;51.17;;;8.50;99.90;;;;;;6249579;22;20096;-86
2023/02/23 00:52:37;;;;;;;113.45;50.95;;;8.40;99.90;;;;;;6247569;22;20026;-88
2023/02/23 00:55:05;;;;;;;121.55;51.25;;;8.40;99.90;;;;;;6276173;22;20478;-87
2023/02/23 00:57:30;;;;;;;117.32;52.97;;;8.40;99.90;;;;;;6275937;22;19999;-87
2023/02/23 00:59:56;;;;;;;111.45;49.85;;;8.40;99.90;;;;;;6249980;22;20008;-87
2023/02/23 01:02:21;;;;;;;112.68;51.55;;;8.40;99.90;;;;;;6276395;22;20338;-87
2023/02/23 01:04:47;;;;;;;115.10;51.50;;;8.40;99.90;;;;;;6276711;22;20031;-87
2023/02/23 01:07:12;;;;;;;121.10;51.92;;;8.30;99.90;;;;;;6248418;22;20012;-87
2023/02/23 01:09:38;;;;;;;113.30;52.38;;;8.30;99.90;;;;;;6249827;22;20080;-87
2023/02/23 01:12:06;;;;;;;111.80;50.05;;;8.30;99.90;;;;;;6249829;22;20003;-87
2023/02/23 01:14:32;;;;;;;113.20;50.63;;;8.30;99.90;;;;;;6250075;22;20057;-87
2023/02/23 01:16:58;;;;;;;105.70;47.60;;;8.30;99.90;;;;;;6249612;22;20013;-87
2023/02/23 01:19:23;;;;;;;123.10;50.45;;;8.30;99.90;;;;;;6249013;22;20011;-87
2023/02/23 01:21:49;;;;;;;116.90;50.20;;;8.20;99.90;;;;;;6249723;22;20011;-87
2023/02/23 01:24:14;;;;;;;121.78;51.75;;;8.20;99.90;;;;;;6248903;22;20053;-87
2023/02/23 01:26:43;;;;;;;114.00;50.38;;;8.20;99.90;;;;;;6249055;22;20067;-87
2023/02/23 01:29:11;;;;;;;112.95;49.00;;;8.20;99.90;;;;;;6249697;22;20045;-87
2023/02/23 01:31:39;;;;;;;112.13;52.40;;;8.20;99.90;;;;;;6249764;22;20049;-86
2023/02/23 01:34:05;;;;;;;114.65;51.40;;;8.20;99.90;;;;;;6249393;22;20006;-86
2023/02/23 01:36:39;;;;;;;111.03;51.40;;;8.20;99.90;;;;;;6276299;22;20075;-86
2023/02/23 01:39:06;;;;;;;118.70;49.90;;;8.20;99.90;;;;;;6249091;22;20007;-86
2023/02/23 01:41:34;;;;;;;114.07;50.03;;;8.20;99.90;;;;;;6276896;22;20003;-86
2023/02/23 01:44:05;;;;;;;122.05;53.92;;;8.20;99.90;;;;;;6249658;22;19999;-86
2023/02/23 01:46:34;;;;;;;116.05;51.72;;;8.20;99.90;;;;;;6249179;22;20008;-85
2023/02/23 01:49:00;;;;;;;119.68;53.90;;;8.20;99.90;;;;;;6276712;22;20326;-86
2023/02/23 01:51:31;;;;;;;113.45;49.92;;;8.20;99.90;;;;;;6249192;22;20008;-85
2023/02/23 01:54:17;;;;;;;115.80;49.35;;;8.10;99.90;;;;;;6249642;22;19996;-85
2023/02/23 01:56:56;;;;;;;110.43;52.05;;;8.10;99.90;;;;;;6249245;22;20007;-86
2023/02/23 01:59:28;;;;;;;125.28;53.35;;;8.10;99.90;;;;;;6275471;22;19996;-85
2023/02/23 02:01:54;;;;;;;110.37;49.27;;;8.10;99.90;;;;;;6275960;22;19996;-86
2023/02/23 02:04:21;;;;;;;115.57;50.50;;;8.10;99.90;;;;;;6248651;22;20008;-86
2023/02/23 02:06:52;;;;;;;120.82;52.38;;;8.10;99.90;;;;;;6248325;22;20069;-86
2023/02/23 02:09:24;;;;;;;113.88;50.95;;;8.10;99.90;;;;;;6248511;22;20091;-86
2023/02/23 02:11:52;;;;;;;116.53;51.97;;;8.10;99.90;;;;;;6249265;22;20004;-86
2023/02/23 02:14:28;;;;;;;130.57;56.25;;;8.20;99.90;;;;;;6248822;22;20000;-86
2023/02/23 02:17:29;;;;;;;124.30;52.97;;;8.20;99.90;;;;;;6275424;22;20426;-86
2023/02/23 02:20:31;;;;;;;119.50;51.67;;;8.20;99.90;;;;;;6274490;22;20045;-86
2023/02/23 02:23:27;;;;;;;124.75;51.20;;;8.30;99.90;;;;;;6276164;22;20000;-86
2023/02/23 02:26:32;;;;;;;118.22;49.80;;;8.20;99.90;;;;;;6249247;22;20016;-86
2023/02/23 02:29:27;;;;;;;120.47;48.80;;;8.20;99.90;;;;;;6248251;22;20378;-85
2023/02/23 02:32:12;;;;;;;120.45;50.63;;;8.20;99.90;;;;;;6248398;22;20006;-86
2023/02/23 02:35:11;;;;;;;109.88;47.88;;;8.20;99.90;;;;;;6249101;22;20436;-86
2023/02/23 02:37:55;;;;;;;123.28;50.65;;;8.10;99.90;;;;;;6248721;22;20087;-86
2023/02/23 02:40:36;;;;;;;116.25;50.50;;;8.10;99.90;;;;;;6248996;22;20007;-86
2023/02/23 02:43:15;;;;;;;116.43;51.17;;;8.10;99.90;;;;;;6248899;22;20000;-86
2023/02/23 02:46:01;;;;;;;118.07;50.47;;;8.10;99.90;;;;;;6275554;22;20430;-86
2023/02/23 02:49:08;;;;;;;119.35;50.95;;;8.00;99.90;;;;;;6247704;22;20011;-86
2023/02/23 02:51:59;;;;;;;125.57;51.75;;;8.00;99.90;;;;;;6275527;22;20000;-86
2023/02/23 02:54:39;;;;;;;117.90;50.95;;;8.00;99.90;;;;;;6274125;22;20074;-85
2023/02/23 02:57:06;;;;;;;120.75;51.25;;;8.00;99.90;;;;;;6247582;22;20000;-86
2023/02/23 04:18:05;;;;;;;129.32;53.65;;;7.80;99.90;;;;;;6277665;22;20010;-86
2023/02/23 04:20:31;;;;;;;141.95;55.13;;;7.70;99.90;;;;;;6276781;22;20019;-87
2023/02/23 04:22:56;;;;;;;140.80;54.47;;;7.70;99.90;;;;;;6277230;22;20002;-88
2023/02/23 04:25:22;;;;;;;136.85;54.13;;;7.70;99.90;;;;;;6250184;22;20000;-87
2023/02/23 04:27:51;;;;;;;135.00;53.75;;;7.70;99.90;;;;;;6249963;22;20086;-87
2023/02/23 04:30:17;;;;;;;129.02;50.40;;;7.80;99.90;;;;;;6249601;22;20000;-87
2023/02/23 04:32:44;;;;;;;137.05;55.20;;;7.70;99.90;;;;;;6250457;22;20007;-87
2023/02/23 04:35:11;;;;;;;141.82;55.30;;;7.70;99.90;;;;;;6250008;22;20021;-87
2023/02/23 04:37:37;;;;;;;146.02;54.47;;;7.70;99.90;;;;;;6250014;22;20010;-87
2023/02/23 04:40:03;;;;;;;144.98;54.55;;;7.70;99.90;;;;;;6250001;22;20023;-87
2023/02/23 04:42:29;;;;;;;133.63;55.45;;;7.70;99.90;;;;;;6250186;22;20377;-87
2023/02/23 04:44:54;;;;;;;137.70;54.63;;;7.70;99.90;;;;;;6249134;22;20004;-87
2023/02/23 04:47:20;;;;;;;140.00;54.53;;;7.70;99.90;;;;;;6249526;22;20038;-87
2023/02/23 04:49:46;;;;;;;148.43;54.40;;;7.70;99.90;;;;;;6250201;22;20003;-86
2023/02/23 04:52:11;;;;;;;141.65;53.67;;;7.70;99.90;;;;;;6249256;22;20015;-87
2023/02/23 04:54:38;;;;;;;143.88;54.90;;;7.70;99.90;;;;;;6249772;22;20004;-86
2023/02/23 04:57:04;;;;;;;138.95;53.67;;;7.70;99.90;;;;;;6249123;22;20004;-87
2023/02/23 04:59:30;;;;;;;145.13;54.20;;;7.70;99.90;;;;;;6276711;22;20497;-86
2023/02/23 05:01:55;;;;;;;162.18;58.47;;;7.70;99.90;;;;;;6249447;22;20039;-86
2023/02/23 05:04:21;;;;;;;156.13;55.50;;;7.70;99.90;;;;;;6248749;22;20418;-86
2023/02/23 05:06:47;;;;;;;138.73;51.78;;;7.70;99.90;;;;;;6249195;22;20026;-86
2023/02/23 05:09:13;;;;;;;141.50;53.35;;;7.70;99.90;;;;;;6276149;22;20065;-87
2023/02/23 05:11:38;;;;;;;143.30;53.63;;;7.70;99.90;;;;;;6249833;22;20087;-87
2023/02/23 05:14:04;;;;;;;141.10;53.53;;;7.70;99.90;;;;;;6276375;22;20003;-86
2023/02/23 05:16:29;;;;;;;151.35;53.75;;;7.70;99.90;;;;;;6276013;22;20012;-87
2023/02/23 05:18:55;;;;;;;141.15;52.38;;;7.60;99.90;;;;;;6248017;22;20503;-86
2023/02/23 05:21:20;;;;;;;146.25;53.58;;;7.60;99.90;;;;;;6248055;22;20035;-86
2023/02/23 05:23:47;;;;;;;147.82;52.75;;;7.60;99.90;;;;;;6247730;22;20341;-86
2023/02/23 05:26:13;;;;;;;145.18;54.35;;;7.70;99.90;;;;;;6248570;22;20019;-86
2023/02/23 05:28:41;;;;;;;142.02;52.42;;;7.70;99.90;;;;;;6276545;22;19996;-86
2023/02/23 05:31:06;;;;;;;155.30;53.00;;;7.70;99.90;;;;;;6248874;22;20011;-87
2023/02/23 05:33:33;;;;;;;146.75;54.20;;;7.60;99.90;;;;;;6248992;22;20095;-86
2023/02/23 05:35:59;;;;;;;154.15;54.10;;;7.70;99.90;;;;;;6249515;22;20003;-86
2023/02/23 05:38:26;;;;;;;144.52;53.53;;;7.70;99.90;;;;;;6249351;22;20038;-86
2023/02/23 05:40:52;;;;;;;147.25;53.28;;;7.70;99.90;;;;;;6248860;22;20011;-87
2023/02/23 05:43:17;;;;;;;150.07;53.17;;;7.60;99.90;;;;;;6248822;22;20000;-86
2023/02/23 05:45:43;;;;;;;145.60;54.13;;;7.60;99.90;;;;;;6249177;22;20022;-86
2023/02/23 05:48:10;;;;;;;144.48;53.03;;;7.60;99.90;;;;;;6276077;22;20014;-87
2023/02/23 05:50:36;;;;;;;151.00;52.55;;;7.60;99.90;;;;;;6248893;22;20008;-86
2023/02/23 05:53:02;;;;;;;148.98;53.58;;;7.60;99.90;;;;;;6274874;22;19995;-86
2023/02/23 05:55:28;;;;;;;144.40;51.55;;;7.60;99.90;;;;;;6249179;22;20011;-86
2023/02/23 05:57:53;;;;;;;150.40;53.83;;;7.60;99.90;;;;;;6248992;22;20023;-86
2023/02/23 06:00:19;;;;;;;149.55;53.25;;;7.60;99.90;;;;;;6248029;22;20106;-86
2023/02/23 06:02:45;;;;;;;153.55;54.70;;;7.60;99.90;;;;;;6248900;22;20008;-85
2023/02/23 06:05:12;;;;;;;140.50;51.15;;;7.60;99.90;;;;;;6247166;22;20010;-86
2023/02/23 06:07:38;;;;;;;144.18;52.22;;;7.60;99.90;;;;;;6248097;22;20022;-86
2023/02/23 06:10:05;;;;;;;147.23;52.85;;;7.60;99.90;;;;;;6275806;22;20003;-86
2023/02/23 06:12:31;;;;;;;130.90;48.13;;;7.60;99.90;;;;;;6249037;22;20094;-86
2023/02/23 06:14:56;;;;;;;142.27;50.75;;;7.50;99.90;;;;;;6275454;22;20081;-86
2023/02/23 06:17:23;;;;;;;140.85;51.30;;;7.60;99.90;;;;;;6248529;22;20006;-86
2023/02/23 06:19:48;;;;;;;140.88;50.78;;;7.50;99.90;;;;;;6247956;22;20016;-87
2023/02/23 06:22:17;;;;;;;148.27;51.95;;;7.60;99.90;;;;;;6275568;22;20071;-86
2023/02/23 06:24:43;;;;;;;153.95;54.83;;;7.50;99.90;;;;;;6248518;22;20003;-86
2023/02/23 06:27:08;;;;;;;152.70;51.40;;;7.50;99.90;;;;;;6246585;22;20023;-86
2023/02/23 06:29:36;;;;;;;141.45;52.33;;;7.50;99.90;;;;;;6248501;22;20000;-86
2023/02/23 06:32:02;;;;;;;145.48;52.25;;;7.50;99.90;;;;;;6273512;22;20077;-86
2023/02/23 06:34:28;;;;;;;142.82;51.42;;;7.50;99.90;;;;;;6248555;22;20004;-86
2023/02/23 06:36:53;;;;;;;148.95;50.50;;;7.50;99.90;;;;;;6248876;22;20018;-86
2023/02/23 06:39:19;;;;;;;148.98;50.55;;;7.50;99.90;;;;;;6246991;22;20035;-86
2023/02/23 06:41:44;;;;;;;154.80;53.42;;;7.50;99.90;;;;;;6247635;22;20418;-87
2023/02/23 06:44:10;;;;;;;159.75;55.70;;;7.50;99.90;;;;;;6247320;22;19996;-87
2023/02/23 06:46:36;;;;;;;137.38;51.15;;;7.50;99.90;;;;;;6249220;22;20102;-87
2023/02/23 06:49:02;;;;;;;150.43;54.35;;;7.50;99.90;;;;;;6246833;22;19996;-88
2023/02/23 06:51:27;;;;;;;144.93;53.13;;;7.50;99.90;;;;;;6247952;22;20007;-87
2023/02/23 06:53:53;;;;;;;159.85;53.38;;;7.50;99.90;;;;;;6248077;22;20042;-87
2023/02/23 06:56:18;;;;;;;147.32;51.80;;;7.50;99.90;;;;;;6275029;22;20061;-87
2023/02/23 06:58:44;;;;;;;159.05;53.10;;;7.50;99.90;;;;;;6248756;22;20456;-87
2023/02/23 07:01:11;;;;;;;160.98;54.90;;;7.50;99.90;;;;;;6248116;22;20003;-88
2023/02/23 07:03:37;;;;;;;140.27;50.63;;;7.50;99.90;;;;;;6249005;22;20003;-88
2023/02/23 07:06:04;;;;;;;144.23;51.65;;;7.50;99.90;;;;;;6248137;22;20016;-87
2023/02/23 07:08:33;;;;;;;145.90;51.65;;;7.50;99.90;;;;;;6248718;22;20440;-87
2023/02/23 07:11:13;;;;;;;151.85;53.50;;;7.60;99.90;;;;;;6247931;22;20003;-88
2023/02/23 07:13:39;;;;;;;139.95;51.08;;;7.60;99.90;;;;;;6249521;22;20379;-88
2023/02/23 07:16:06;;;;;;;141.45;50.00;;;7.60;99.90;;;;;;6250438;22;20008;-87
2023/02/23 07:18:31;;;;;;;142.23;51.20;;;7.60;99.90;;;;;;6250938;22;20063;-86
2023/02/23 07:20:57;;;;;;;150.15;51.42;;;7.60;99.90;;;;;;6276945;22;20350;-86
2023/02/23 07:23:23;;;;;;;138.32;49.17;;;7.60;99.90;;;;;;6247636;22;20028;-86
2023/02/23 07:25:50;;;;;;;140.88;49.67;;;7.60;99.90;;;;;;6248002;22;20012;-87
2023/02/23 07:28:15;;;;;;;142.00;49.28;;;7.60;99.90;;;;;;6275274;22;20027;-86
2023/02/23 07:30:41;;;;;;;137.40;50.05;;;7.60;99.90;;;;;;6273726;22;20426;-87
2023/02/23 07:33:07;;;;;;;127.30;47.20;;;7.60;99.90;;;;;;6248671;22;20372;-87
2023/02/23 07:35:32;;;;;;;133.73;49.65;;;7.70;99.90;;;;;;6248499;22;20061;-87
2023/02/23 07:37:58;;;;;;;130.45;49.05;;;7.70;99.90;;;;;;6248048;22;20022;-87
2023/02/23 07:40:24;;;;;;;135.38;49.47;;;7.70;99.90;;;;;;6273419;22;20004;-87
2023/02/23 07:42:50;;;;;;;137.93;49.15;;;7.70;99.90;;;;;;6273701;22;20003;-87
2023/02/23 07:45:16;;;;;;;137.20;49.25;;;7.80;99.90;;;;;;6246086;22;20008;-86
2023/02/23 07:47:42;;;;;;;136.52;48.03;;;7.80;99.90;;;;;;6275349;22;20018;-86
2023/02/23 07:50:09;;;;;;;123.63;44.83;;;7.80;99.90;;;;;;6247183;22;20009;-86
2023/02/23 07:52:39;;;;;;;133.05;50.28;;;7.80;99.90;;;;;;6246411;22;20422;-85
2023/02/23 07:55:06;;;;;;;125.03;46.88;;;7.90;99.90;;;;;;6250091;22;20039;-86
2023/02/23 07:57:32;;;;;;;116.82;43.53;;;7.90;99.90;;;;;;6250060;22;19999;-86
2023/02/23 07:59:58;;;;;;;128.82;48.38;;;7.90;99.90;;;;;;6249517;22;20000;-86
2023/02/23 08:02:23;;;;;;;126.22;47.83;;;7.90;99.90;;;;;;6249894;22;20004;-87
2023/02/23 08:04:49;;;;;;;142.55;49.47;;;7.90;99.90;;;;;;6250312;22;20004;-86
2023/02/23 08:07:15;;;;;;;131.55;46.97;;;7.90;99.90;;;;;;6250417;22;20012;-86
2023/02/23 08:09:40;;;;;;;129.57;48.42;;;7.90;99.90;;;;;;6249568;22;20027;-86
2023/02/23 08:12:06;;;;;;;142.98;51.47;;;7.90;99.90;;;;;;6249813;22;20042;-87
2023/02/23 08:14:31;;;;;;;129.68;48.20;;;7.90;99.90;;;;;;6248334;22;20014;-86
2023/02/23 08:16:57;;;;;;;137.95;48.70;;;8.00;99.90;;;;;;6249358;22;20492;-86
2023/02/23 08:19:22;;;;;;;136.50;48.72;;;8.00;99.90;;;;;;6247701;22;20418;-86
2023/02/23 08:21:49;;;;;;;131.38;49.55;;;8.00;99.90;;;;;;6248351;22;20456;-87
2023/02/23 08:24:15;;;;;;;132.23;49.47;;;8.00;99.90;;;;;;6249584;22;20102;-86
2023/02/23 08:26:41;;;;;;;139.13;49.15;;;8.00;99.90;;;;;;6249731;22;20011;-87
2023/02/23 08:29:06;;;;;;;137.63;49.92;;;8.10;99.90;;;;;;6250034;22;20004;-86
2023/02/23 08:31:32;;;;;;;134.73;48.55;;;8.10;99.90;;;;;;6247040;22;20000;-85
2023/02/23 08:33:58;;;;;;;133.10;49.45;;;8.20;99.90;;;;;;6247372;22;19999;-87
2023/02/23 08:36:24;;;;;;;133.95;48.38;;;8.20;99.90;;;;;;6247741;22;20011;-87
2023/02/23 08:38:49;;;;;;;131.82;50.15;;;8.20;99.90;;;;;;6247465;22;20491;-87
2023/02/23 08:41:15;;;;;;;123.55;47.33;;;8.30;99.90;;;;;;6247523;22;20007;-86
2023/02/23 08:43:41;;;;;;;127.90;49.00;;;8.30;99.90;;;;;;6247859;22;20004;-86
2023/02/23 08:46:07;;;;;;;135.13;49.08;;;8.30;99.90;;;;;;6247073;22;20012;-86
2023/02/23 08:48:34;;;;;;;129.40;47.38;;;8.30;99.90;;;;;;6247618;22;20476;-86
2023/02/23 08:51:00;;;;;;;120.40;46.00;;;8.40;99.90;;;;;;6249335;22;20090;-86
2023/02/23 08:53:28;;;;;;;139.35;50.05;;;8.40;99.90;;;;;;6250000;22;20003;-86
2023/02/23 08:55:59;;;;;;;117.45;45.20;;;8.50;99.90;;;;;;6249826;22;20011;-86
2023/02/23 08:58:26;;;;;;;125.25;47.55;;;8.50;99.90;;;;;;6249733;22;20083;-86
2023/02/23 09:00:52;;;;;;;132.88;51.83;;;8.40;99.90;;;;;;6248798;22;20003;-86
2023/02/23 09:03:18;;;;;;;125.13;47.22;;;8.40;99.90;;;;;;6249729;22;20337;-86
2023/02/23 09:05:43;;;;;;;123.13;46.67;;;8.30;99.90;;;;;;6249900;22;20014;-86
2023/02/23 09:08:11;;;;;;;120.93;47.28;;;8.30;99.90;;;;;;6249523;22;20004;-86
2023/02/23 09:10:36;;;;;;;118.05;44.20;;;8.30;99.90;;;;;;6249652;22;20058;-87
2023/02/23 09:13:02;;;;;;;127.80;47.80;;;8.40;99.90;;;;;;6249643;22;20008;-86
2023/02/23 09:15:27;;;;;;;125.15;45.90;;;8.40;99.90;;;;;;6249671;22;20003;-87
2023/02/23 09:17:53;;;;;;;117.97;45.30;;;8.40;99.90;;;;;;6249038;22;20066;-86
2023/02/23 09:20:19;;;;;;;114.85;44.85;;;8.50;99.90;;;;;;6248932;22;20374;-86
2023/02/23 09:22:47;;;;;;;116.95;43.97;;;8.50;99.90;;;;;;6249631;22;20007;-87
2023/02/23 09:25:17;;;;;;;127.80;47.97;;;8.50;99.90;;;;;;6249258;22;20004;-86
2023/02/23 09:27:44;;;;;;;124.15;46.72;;;8.50;99.90;;;;;;6249856;22;20091;-87
2023/02/23 09:30:14;;;;;;;112.47;43.35;;;8.50;99.90;;;;;;6276292;22;20022;-86
2023/02/23 09:32:39;;;;;;;116.82;46.60;;;8.50;99.90;;;;;;6249600;22;20082;-87
2023/02/23 09:35:05;;;;;;;110.53;44.38;;;8.50;99.90;;;;;;6249870;22;20153;-86
2023/02/23 09:37:31;;;;;;;120.90;44.20;;;8.50;99.90;;;;;;6251476;22;20008;-87
2023/02/23 09:39:56;;;;;;;113.68;43.47;;;8.50;99.90;;;;;;6251721;22;20022;-87
2023/02/23 09:42:49;;;;;;;111.20;43.78;;;8.50;99.90;;;;;;6250905;22;20000;-87
2023/02/23 09:45:35;;;;;;;;;;;8.50;99.90;;;;;;6252341;22;20015;-86
2023/02/23 09:48:03;;;;;;;114.18;42.70;;;8.40;99.90;;;;;;6225169;22;19974;-87
2023/02/23 09:50:30;;;;;;;112.75;42.75;;;8.40;99.90;;;;;;6252176;22;20007;-86
2023/02/23 09:53:28;;;;;;;119.10;45.80;;;8.40;99.90;;;;;;6251224;22;20011;-86
2023/02/23 09:55:54;;;;;;;113.72;43.70;;;8.40;99.90;;;;;;6279020;22;20006;-86
2023/02/23 09:58:29;;;;;;;109.60;41.97;;;8.40;99.90;;;;;;6250831;22;20000;-87
2023/02/23 10:01:25;;;;;;;121.25;45.50;;;8.40;99.90;;;;;;6251967;22;20000;-87
2023/02/23 10:03:54;;;;;;;112.45;41.85;;;8.40;99.90;;;;;;6251415;22;20426;-87
2023/02/23 10:06:20;;;;;;;111.82;43.97;;;8.40;99.90;;;;;;6251376;22;20470;-87
2023/02/23 10:08:59;;;;;;;120.65;46.45;;;8.40;99.90;;;;;;6251138;22;20014;-86
2023/02/23 10:11:41;;;;;;;108.50;41.70;;;8.40;99.90;;;;;;6251077;22;20331;-86
2023/02/23 10:14:56;;;;;;;97.85;38.90;;;8.40;99.90;;;;;;6250941;22;20374;-86
2023/02/23 10:17:54;;;;;;;108.70;42.85;;;8.40;99.90;;;;;;6159618;23;20032;-86
2023/02/23 10:20:53;;;;;;;109.03;42.35;;;8.40;99.90;;;;;;6275900;22;20498;-87
2023/02/23 10:23:44;;;;;;;126.40;44.50;;;8.50;99.90;;;;;;6249949;22;20446;-87
2023/02/23 10:26:20;;;;;;;116.90;43.90;;;8.50;99.90;;;;;;6267422;22;20515;-86
2023/02/23 10:28:46;;;;;;;114.55;44.80;;;8.50;99.90;;;;;;6251436;22;20007;-87
2023/02/23 10:31:30;;;;;;;109.85;43.33;;;8.60;99.90;;;;;;6250678;22;20061;-87
2023/02/23 10:34:01;;;;;;;109.15;40.75;;;8.60;99.90;;;;;;6278618;22;20000;-87
2023/02/23 10:36:57;;;;;;;112.30;44.75;;;8.60;99.90;;;;;;6251049;22;20019;-87
2023/02/23 10:39:23;;;;;;;110.97;43.47;;;8.60;99.90;;;;;;6243380;22;20465;-86
2023/02/23 10:41:48;;;;;;;107.63;42.70;;;8.60;99.90;;;;;;6251492;22;20004;-87
2023/02/23 10:44:21;;;;;;;106.57;39.85;;;8.70;99.90;;;;;;6251437;22;20086;-87
2023/02/23 10:46:53;;;;;;;104.30;41.13;;;8.70;99.90;;;;;;6251170;22;20016;-87
2023/02/23 10:49:22;;;;;;;109.07;40.67;;;8.70;99.90;;;;;;6251035;22;20000;-86
2023/02/23 10:51:51;;;;;;;104.22;38.15;;;8.80;99.90;;;;;;6251246;22;20012;-87
2023/02/23 10:54:36;;;;;;;104.63;38.97;;;8.80;99.90;;;;;;6250515;22;20003;-86
2023/02/23 10:57:04;;;;;;;98.95;40.75;;;8.90;99.90;;;;;;6250855;22;20845;-87
2023/02/23 10:59:30;;;;;;;113.82;44.38;;;8.90;99.90;;;;;;6278150;22;20003;-87
2023/02/23 11:01:56;;;;;;;102.95;39.80;;;8.90;99.90;;;;;;6251112;22;20007;-87
2023/02/23 11:04:30;;;;;;;102.55;38.80;;;9.00;99.90;;;;;;6277883;22;20455;-87
2023/02/23 11:07:15;;;;;;;96.32;38.95;;;9.00;99.90;;;;;;6250891;22;20524;-87
2023/02/23 11:09:41;;;;;;;96.05;38.45;;;9.10;99.90;;;;;;6251354;22;20007;-87
2023/02/23 11:12:40;;;;;;;91.10;36.03;;;9.10;99.90;;;;;;6250553;22;20004;-87
2023/02/23 11:15:24;;;;;;;87.95;35.67;;;9.20;99.90;;;;;;6250755;22;20038;-86
2023/02/23 11:18:02;;;;;;;87.57;36.17;;;9.20;99.90;;;;;;6251362;22;20003;-87
2023/02/23 11:20:40;;;;;;;86.85;34.85;;;9.30;99.90;;;;;;6276967;22;20083;-86
2023/02/23 11:23:16;;;;;;;81.13;32.70;;;9.30;99.90;;;;;;6251112;22;20053;-86
2023/02/23 11:25:44;;;;;;;78.07;31.88;;;9.40;99.90;;;;;;6251880;22;20087;-87
2023/02/23 11:28:21;;;;;;;78.38;31.20;;;9.40;99.90;;;;;;6249641;22;20008;-87
2023/02/23 11:30:48;;;;;;;79.82;31.95;;;9.40;99.90;;;;;;6250576;22;20122;-87
2023/02/23 11:33:17;;;;;;;70.63;28.67;;;9.50;99.90;;;;;;6250592;22;20011;-87
2023/02/23 11:35:43;;;;;;;66.80;27.60;;;9.60;99.90;;;;;;6250828;22;20021;-87
2023/02/23 11:38:21;;;;;;;62.85;27.17;;;9.60;99.90;;;;;;6249782;22;20098;-86
2023/02/23 11:41:06;;;;;;;62.13;25.92;;;9.70;99.90;;;;;;6250479;22;20015;-86
2023/02/23 11:43:32;;;;;;;59.67;26.88;;;9.70;99.90;;;;;;6250524;22;20000;-86
2023/02/23 11:45:59;;;;;;;59.05;25.52;;;9.70;99.90;;;;;;6250883;22;20095;-86
2023/02/23 11:48:59;;;;;;;64.85;27.73;;;9.70;99.90;;;;;;6250442;22;20030;-86
2023/02/23 11:51:38;;;;;;;58.85;25.08;;;9.70;99.90;;;;;;6246060;22;20012;-85
2023/02/23 11:54:06;;;;;;;60.28;25.10;;;9.70;99.90;;;;;;6250132;22;20003;-87
2023/02/23 11:56:34;;;;;;;54.15;24.23;;;9.60;99.90;;;;;;6277002;22;20326;-86
2023/02/23 11:59:14;;;;;;;54.58;24.85;;;9.60;99.90;;;;;;6276390;22;20054;-86
2023/02/23 12:01:46;;;;;;;56.83;24.33;;;9.60;99.90;;;;;;6250593;22;20499;-86
2023/02/23 12:04:33;;;;;;;52.45;23.85;;;9.60;99.90;;;;;;6275082;22;20007;-86
2023/02/23 12:07:45;;;;;;;54.95;23.25;;;9.60;99.90;;;;;;6249155;22;20081;-87
2023/02/23 12:10:14;;;;;;;48.72;22.20;;;9.60;99.90;;;;;;6250526;22;20010;-87
2023/02/23 12:12:45;;;;;;;51.83;24.30;;;9.60;99.90;;;;;;6250379;22;20008;-87
2023/02/23 12:15:28;;;;;;;50.97;22.43;;;9.60;99.90;;;;;;6248977;22;20004;-87
2023/02/23 12:18:01;;;;;;;53.28;25.08;;;9.60;99.90;;;;;;6276841;22;20008;-86
2023/02/23 12:20:37;;;;;;;54.35;24.83;;;9.50;99.90;;;;;;6248497;22;20027;-86
2023/02/23 12:23:11;;;;;;;58.97;24.85;;;9.50;99.90;;;;;;6249320;22;20008;-87
2023/02/23 12:25:51;;;;;;;55.63;24.83;;;9.50;99.90;;;;;;6250253;22;20003;-86
2023/02/23 12:28:41;;;;;;;54.72;23.88;;;9.40;99.90;;;;;;6251415;22;20437;-87
2023/02/23 12:31:39;;;;;;;54.20;25.00;;;9.40;99.90;;;;;;6250885;22;20067;-86
2023/02/23 12:34:20;;;;;;;49.67;22.95;;;9.30;99.90;;;;;;6278655;22;20003;-87
2023/02/23 12:37:13;;;;;;;53.60;23.77;;;9.30;99.90;;;;;;6278942;22;20032;-86
2023/02/23 12:39:43;;;;;;;49.50;23.00;;;9.30;99.90;;;;;;6250530;22;20264;-86
2023/02/23 12:42:41;;;;;;;47.10;22.38;;;9.30;99.90;;;;;;6278273;22;20440;-86
2023/02/23 12:45:19;;;;;;;53.45;22.48;;;9.20;99.90;;;;;;6217820;22;20010;-86
2023/02/23 12:48:06;;;;;;;48.85;22.00;;;9.20;99.90;;;;;;6252755;22;20011;-87
2023/02/23 12:50:49;;;;;;;48.00;21.33;;;9.30;99.90;;;;;;6252632;22;20006;-87
2023/02/23 12:53:27;;;;;;;42.33;20.27;;;9.30;99.90;;;;;;6251455;22;20025;-86
2023/02/23 12:56:34;;;;;;;44.28;20.77;;;9.30;99.90;;;;;;6249495;22;20007;-85
2023/02/23 12:59:27;;;;;;;42.05;19.27;;;9.40;99.90;;;;;;6250526;22;20023;-88
2023/02/23 13:01:59;;;;;;;41.10;19.17;;;9.40;99.90;;;;;;6252014;22;21660;-87
2023/02/23 13:04:50;;;;;;;41.78;19.77;;;9.40;99.90;;;;;;6251347;22;20447;-87
2023/02/23 13:07:40;;;;;;;40.65;19.10;;;9.40;99.90;;;;;;6251613;22;20354;-86
2023/02/23 13:10:30;;;;;;;38.40;18.92;;;9.50;99.90;;;;;;6278355;22;20003;-87
2023/02/23 13:13:20;;;;;;;33.53;16.13;;;9.60;99.90;;;;;;6251916;22;20607;-87
2023/02/23 13:16:00;;;;;;;32.33;15.23;;;9.70;99.90;;;;;;6279077;22;20015;-87
2023/02/23 13:18:35;;;;;;;27.83;13.43;;;9.80;99.90;;;;;;6250730;22;20004;-87
2023/02/23 13:21:04;;;;;;;16.92;9.30;;;9.80;99.90;;;;;;6249040;22;20434;-87
2023/02/23 13:23:47;;;;;;;13.88;6.68;;;9.80;99.90;;;;;;6279161;22;20008;-87
2023/02/23 13:26:35;;;;;;;14.27;7.03;;;9.70;99.90;;;;;;6250482;22;20007;-87
2023/02/23 13:29:04;;;;;;;12.25;6.32;;;9.60;99.90;;;;;;6249244;22;20004;-87
2023/02/23 13:31:39;;;;;;;13.55;6.10;;;9.60;99.90;;;;;;6250839;22;20011;-87
2023/02/23 13:34:15;;;;;;;13.95;7.20;;;9.60;99.90;;;;;;6276507;22;20078;-87
2023/02/23 13:36:42;;;;;;;16.90;7.53;;;9.50;99.90;;;;;;6249415;22;20078;-87
2023/02/23 13:39:46;;;;;;;16.85;8.75;;;9.50;99.90;;;;;;6248910;22;20431;-86
2023/02/23 13:42:33;;;;;;;18.95;9.48;;;9.40;99.90;;;;;;6249573;22;20003;-87
2023/02/23 13:45:36;;;;;;;27.40;11.02;;;9.30;99.90;;;;;;6248940;22;20011;-86
2023/02/23 13:48:29;;;;;;;22.90;9.75;;;9.30;99.90;;;;;;6250001;22;20012;-87
2023/02/23 13:51:04;;;;;;;;;;;9.30;99.90;;;;;;6276907;22;20003;-87
2023/02/23 13:53:38;;;;;;;25.20;11.00;;;9.10;99.90;;;;;;6249764;22;19910;-86
2023/02/23 13:56:24;;;;;;;23.42;11.25;;;9.20;99.90;;;;;;6275638;22;19996;-87
2023/02/23 13:58:59;;;;;;;28.92;11.48;;;9.10;99.90;;;;;;6249684;22;20000;-87
2023/02/23 14:01:35;;;;;;;24.80;10.57;;;9.20;99.90;;;;;;6275780;22;20082;-87
2023/02/23 14:04:11;;;;;;;26.58;12.02;;;9.10;99.90;;;;;;6248167;22;20007;-87
2023/02/23 14:06:38;;;;;;;25.85;12.00;;;9.10;99.90;;;;;;6276631;22;20080;-86
2023/02/23 14:09:12;;;;;;;25.08;9.85;;;9.10;99.90;;;;;;6248193;22;20426;-87
2023/02/23 14:11:45;;;;;;;22.50;9.93;;;9.20;99.90;;;;;;6245806;22;20004;-87
2023/02/23 14:14:32;;;;;;;25.02;9.65;;;9.20;99.90;;;;;;6271428;22;20513;-86